sensor_id;sensor_type;location;lat;lon;timestamp;temperature;humidity
3715;DHT22;1873;49.988;8.674;2022-11-20T00:01:34;3.40;99.90
3715;DHT22;1873;49.988;8.674;2022-11-20T00:04:02;3.40;99.90
3715;DHT22;1873;49.988;8.674;2022-11-20T00:06:31;3.40;99.90
3715;DHT22;1873;49.988;8.674;2022-11-20T00:09:00;3.40;99.90
3715;DHT22;1873;49.988;8.674;2022-11-20T00:11:30;3.40;99.90
3715;DHT22;1873;49.988;8.674;2022-11-20T00:14:00;3.30;99.90
3715;DHT22;1873;49.988;8.674;2022-11-20T00:16:32;3.20;99.90
3715;DHT22;1873;49.988;8.674;2022-11-20T00:19:01;3.20;99.90
3715;DHT22;1873;49.988;8.674;2022-11-20T00:21:30;3.30;99.90
3715;DHT22;1873;49.988;8.674;2022-11-20T00:23:58;3.30;99.90
3715;DHT22;1873;49.988;8.674;2022-11-20T00:26:28;3.30;99.90
3715;DHT22;1873;49.988;8.674;2022-11-20T00:29:00;3.30;99.90
3715;DHT22;1873;49.988;8.674;2022-11-20T00:31:29;3.40;99.90
3715;DHT22;1873;49.988;8.674;2022-11-20T00:33:59;3.30;99.90
3715;DHT22;1873;49.988;8.674;2022-11-20T00:36:31;3.40;99.90
3715;DHT22;1873;49.988;8.674;2022-11-20T00:39:00;3.40;99.90
3715;DHT22;1873;49.988;8.674;2022-11-20T00:41:29;3.40;99.90
3715;DHT22;1873;49.988;8.674;2022-11-20T00:43:58;3.40;99.90
3715;DHT22;1873;49.988;8.674;2022-11-20T00:46:27;3.30;99.90
3715;DHT22;1873;49.988;8.674;2022-11-20T00:48:56;3.40;99.90
3715;DHT22;1873;49.988;8.674;2022-11-20T00:51:27;3.40;99.90
3715;DHT22;1873;49.988;8.674;2022-11-20T00:53:56;3.30;99.90
3715;DHT22;1873;49.988;8.674;2022-11-20T00:56:27;3.30;99.90
3715;DHT22;1873;49.988;8.674;2022-11-20T00:58:59;3.40;99.90
3715;DHT22;1873;49.988;8.674;2022-11-20T01:01:28;3.40;99.90
3715;DHT22;1873;49.988;8.674;2022-11-20T01:03:59;3.30;99.90
3715;DHT22;1873;49.988;8.674;2022-11-20T01:06:30;3.30;99.90
3715;DHT22;1873;49.988;8.674;2022-11-20T01:09:01;3.30;99.90
3715;DHT22;1873;49.988;8.674;2022-11-20T01:11:31;3.30;99.90
3715;DHT22;1873;49.988;8.674;2022-11-20T01:14:02;3.30;99.90
3715;DHT22;1873;49.988;8.674;2022-11-20T01:16:33;3.30;99.90
3715;DHT22;1873;49.988;8.674;2022-11-20T01:19:04;3.30;99.90
3715;DHT22;1873;49.988;8.674;2022-11-20T01:21:35;3.30;99.90
3715;DHT22;1873;49.988;8.674;2022-11-20T01:24:05;3.30;99.90
3715;DHT22;1873;49.988;8.674;2022-11-20T01:26:37;3.30;99.90
3715;DHT22;1873;49.988;8.674;2022-11-20T01:29:06;3.30;99.90
3715;DHT22;1873;49.988;8.674;2022-11-20T01:31:36;3.20;99.90
3715;DHT22;1873;49.988;8.674;2022-11-20T01:34:06;3.10;99.90
3715;DHT22;1873;49.988;8.674;2022-11-20T01:36:38;3.10;99.90
3715;DHT22;1873;49.988;8.674;2022-11-20T01:39:10;3.10;99.90
3715;DHT22;1873;49.988;8.674;2022-11-20T01:41:39;3.00;99.90
3715;DHT22;1873;49.988;8.674;2022-11-20T01:44:43;3.00;99.90
3715;DHT22;1873;49.988;8.674;2022-11-20T01:47:15;3.00;99.90
3715;DHT22;1873;49.988;8.674;2022-11-20T01:49:47;3.00;99.90
3715;DHT22;1873;49.988;8.674;2022-11-20T01:52:21;3.10;99.90
3715;DHT22;1873;49.988;8.674;2022-11-20T01:54:54;3.10;99.90
3715;DHT22;1873;49.988;8.674;2022-11-20T01:57:25;3.20;99.90
3715;DHT22;1873;49.988;8.674;2022-11-20T02:00:00;3.20;99.90
3715;DHT22;1873;49.988;8.674;2022-11-20T02:02:29;3.20;99.90
3715;DHT22;1873;49.988;8.674;2022-11-20T02:05:02;3.20;99.90
3715;DHT22;1873;49.988;8.674;2022-11-20T02:07:33;3.20;99.90
3715;DHT22;1873;49.988;8.674;2022-11-20T02:10:02;3.20;99.90
3715;DHT22;1873;49.988;8.674;2022-11-20T02:12:31;3.30;99.90
3715;DHT22;1873;49.988;8.674;2022-11-20T02:15:18;3.30;99.90
3715;DHT22;1873;49.988;8.674;2022-11-20T02:17:46;3.30;99.90
3715;DHT22;1873;49.988;8.674;2022-11-20T02:20:15;3.30;99.90
3715;DHT22;1873;49.988;8.674;2022-11-20T02:22:50;3.40;99.90
3715;DHT22;1873;49.988;8.674;2022-11-20T02:25:21;3.40;99.90
3715;DHT22;1873;49.988;8.674;2022-11-20T02:27:49;3.30;99.90
3715;DHT22;1873;49.988;8.674;2022-11-20T02:30:18;3.30;99.90
3715;DHT22;1873;49.988;8.674;2022-11-20T02:32:47;3.20;99.90
3715;DHT22;1873;49.988;8.674;2022-11-20T02:35:39;3.20;99.90
3715;DHT22;1873;49.988;8.674;2022-11-20T02:38:07;3.20;99.90
3715;DHT22;1873;49.988;8.674;2022-11-20T02:40:37;3.30;99.90
3715;DHT22;1873;49.988;8.674;2022-11-20T02:43:06;3.30;99.90
3715;DHT22;1873;49.988;8.674;2022-11-20T02:45:36;3.30;99.90
3715;DHT22;1873;49.988;8.674;2022-11-20T02:48:06;3.20;99.90
3715;DHT22;1873;49.988;8.674;2022-11-20T02:50:37;3.20;99.90
3715;DHT22;1873;49.988;8.674;2022-11-20T02:53:06;3.20;99.90
3715;DHT22;1873;49.988;8.674;2022-11-20T02:55:34;3.10;99.90
3715;DHT22;1873;49.988;8.674;2022-11-20T02:58:04;3.20;99.90
3715;DHT22;1873;49.988;8.674;2022-11-20T03:00:32;3.20;99.90
3715;DHT22;1873;49.988;8.674;2022-11-20T03:03:02;3.30;99.90
3715;DHT22;1873;49.988;8.674;2022-11-20T03:05:31;3.30;99.90
3715;DHT22;1873;49.988;8.674;2022-11-20T03:07:59;3.30;99.90
3715;DHT22;1873;49.988;8.674;2022-11-20T03:10:27;3.30;99.90
3715;DHT22;1873;49.988;8.674;2022-11-20T03:13:22;3.30;99.90
3715;DHT22;1873;49.988;8.674;2022-11-20T03:15:50;3.20;99.90
3715;DHT22;1873;49.988;8.674;2022-11-20T03:18:19;3.30;99.90
3715;DHT22;1873;49.988;8.674;2022-11-20T03:20:47;3.30;99.90
3715;DHT22;1873;49.988;8.674;2022-11-20T03:23:15;3.30;99.90
3715;DHT22;1873;49.988;8.674;2022-11-20T03:25:44;3.40;99.90
3715;DHT22;1873;49.988;8.674;2022-11-20T03:28:14;3.30;99.90
3715;DHT22;1873;49.988;8.674;2022-11-20T03:30:42;3.40;99.90
3715;DHT22;1873;49.988;8.674;2022-11-20T03:33:10;3.40;99.90
3715;DHT22;1873;49.988;8.674;2022-11-20T03:35:38;3.40;99.90
3715;DHT22;1873;49.988;8.674;2022-11-20T03:38:07;3.30;99.90
3715;DHT22;1873;49.988;8.674;2022-11-20T03:40:35;3.40;99.90
3715;DHT22;1873;49.988;8.674;2022-11-20T03:43:03;3.40;99.90
3715;DHT22;1873;49.988;8.674;2022-11-20T03:45:33;3.40;99.90
3715;DHT22;1873;49.988;8.674;2022-11-20T03:48:01;3.40;99.90
3715;DHT22;1873;49.988;8.674;2022-11-20T03:50:29;3.40;99.90
3715;DHT22;1873;49.988;8.674;2022-11-20T03:52:57;3.40;99.90
3715;DHT22;1873;49.988;8.674;2022-11-20T03:55:25;3.40;99.90
3715;DHT22;1873;49.988;8.674;2022-11-20T03:57:54;3.40;99.90
3715;DHT22;1873;49.988;8.674;2022-11-20T04:00:22;3.40;99.90
3715;DHT22;1873;49.988;8.674;2022-11-20T04:02:52;3.30;99.90
3715;DHT22;1873;49.988;8.674;2022-11-20T04:05:20;3.40;99.90
3715;DHT22;1873;49.988;8.674;2022-11-20T04:07:48;3.30;99.90
3715;DHT22;1873;49.988;8.674;2022-11-20T04:10:16;3.30;99.90
3715;DHT22;1873;49.988;8.674;2022-11-20T04:12:45;3.30;99.90
3715;DHT22;1873;49.988;8.674;2022-11-20T04:15:13;3.30;99.90
3715;DHT22;1873;49.988;8.674;2022-11-20T04:17:41;3.30;99.90
3715;DHT22;1873;49.988;8.674;2022-11-20T04:20:13;3.30;99.90
3715;DHT22;1873;49.988;8.674;2022-11-20T04:22:41;3.30;99.90
3715;DHT22;1873;49.988;8.674;2022-11-20T04:25:12;3.40;99.90
3715;DHT22;1873;49.988;8.674;2022-11-20T04:27:40;3.40;99.90
3715;DHT22;1873;49.988;8.674;2022-11-20T04:30:09;3.40;99.90
3715;DHT22;1873;49.988;8.674;2022-11-20T04:32:38;3.30;99.90
3715;DHT22;1873;49.988;8.674;2022-11-20T04:35:06;3.40;99.90
3715;DHT22;1873;49.988;8.674;2022-11-20T04:37:36;3.30;99.90
3715;DHT22;1873;49.988;8.674;2022-11-20T04:40:05;3.40;99.90
3715;DHT22;1873;49.988;8.674;2022-11-20T04:42:34;3.30;99.90
3715;DHT22;1873;49.988;8.674;2022-11-20T04:45:03;3.30;99.90
3715;DHT22;1873;49.988;8.674;2022-11-20T04:47:31;3.40;99.90
3715;DHT22;1873;49.988;8.674;2022-11-20T04:50:00;3.40;99.90
3715;DHT22;1873;49.988;8.674;2022-11-20T04:52:28;3.40;99.90
3715;DHT22;1873;49.988;8.674;2022-11-20T04:54:58;3.40;99.90
3715;DHT22;1873;49.988;8.674;2022-11-20T04:57:26;3.40;99.90
3715;DHT22;1873;49.988;8.674;2022-11-20T04:59:54;3.40;99.90
3715;DHT22;1873;49.988;8.674;2022-11-20T05:02:23;3.40;99.90
3715;DHT22;1873;49.988;8.674;2022-11-20T05:04:52;3.40;99.90
3715;DHT22;1873;49.988;8.674;2022-11-20T05:07:21;3.30;99.90
3715;DHT22;1873;49.988;8.674;2022-11-20T05:09:50;3.40;99.90
3715;DHT22;1873;49.988;8.674;2022-11-20T05:12:20;3.40;99.90
3715;DHT22;1873;49.988;8.674;2022-11-20T05:14:50;3.30;99.90
3715;DHT22;1873;49.988;8.674;2022-11-20T05:17:18;3.30;99.90
3715;DHT22;1873;49.988;8.674;2022-11-20T05:19:46;3.40;99.90
3715;DHT22;1873;49.988;8.674;2022-11-20T05:22:19;3.40;99.90
3715;DHT22;1873;49.988;8.674;2022-11-20T05:24:47;3.30;99.90
3715;DHT22;1873;49.988;8.674;2022-11-20T05:27:15;3.40;99.90
3715;DHT22;1873;49.988;8.674;2022-11-20T05:29:45;3.40;99.90
3715;DHT22;1873;49.988;8.674;2022-11-20T05:32:13;3.40;99.90
3715;DHT22;1873;49.988;8.674;2022-11-20T05:34:41;3.40;99.90
3715;DHT22;1873;49.988;8.674;2022-11-20T05:37:10;3.40;99.90
3715;DHT22;1873;49.988;8.674;2022-11-20T05:39:38;3.30;99.90
3715;DHT22;1873;49.988;8.674;2022-11-20T05:42:06;3.40;99.90
3715;DHT22;1873;49.988;8.674;2022-11-20T05:44:53;3.40;99.90
3715;DHT22;1873;49.988;8.674;2022-11-20T05:47:22;3.40;99.90
3715;DHT22;1873;49.988;8.674;2022-11-20T05:49:50;3.40;99.90
3715;DHT22;1873;49.988;8.674;2022-11-20T05:52:18;3.40;99.90
3715;DHT22;1873;49.988;8.674;2022-11-20T05:54:46;3.40;99.90
3715;DHT22;1873;49.988;8.674;2022-11-20T05:57:15;3.40;99.90
3715;DHT22;1873;49.988;8.674;2022-11-20T05:59:44;3.40;99.90
3715;DHT22;1873;49.988;8.674;2022-11-20T06:02:13;3.40;99.90
3715;DHT22;1873;49.988;8.674;2022-11-20T06:04:42;3.40;99.90
3715;DHT22;1873;49.988;8.674;2022-11-20T06:07:10;3.40;99.90
3715;DHT22;1873;49.988;8.674;2022-11-20T06:09:39;3.50;99.90
3715;DHT22;1873;49.988;8.674;2022-11-20T06:12:07;3.40;99.90
3715;DHT22;1873;49.988;8.674;2022-11-20T06:14:35;3.40;99.90
3715;DHT22;1873;49.988;8.674;2022-11-20T06:17:06;3.40;99.90
3715;DHT22;1873;49.988;8.674;2022-11-20T06:19:36;3.40;99.90
3715;DHT22;1873;49.988;8.674;2022-11-20T06:22:04;3.40;99.90
3715;DHT22;1873;49.988;8.674;2022-11-20T06:24:32;3.40;99.90
3715;DHT22;1873;49.988;8.674;2022-11-20T06:27:01;3.40;99.90
3715;DHT22;1873;49.988;8.674;2022-11-20T06:29:30;3.40;99.90
3715;DHT22;1873;49.988;8.674;2022-11-20T06:32:00;3.40;99.90
3715;DHT22;1873;49.988;8.674;2022-11-20T06:34:30;3.40;99.90
3715;DHT22;1873;49.988;8.674;2022-11-20T06:37:00;3.40;99.90
3715;DHT22;1873;49.988;8.674;2022-11-20T06:39:28;3.40;99.90
3715;DHT22;1873;49.988;8.674;2022-11-20T06:41:56;3.40;99.90
3715;DHT22;1873;49.988;8.674;2022-11-20T06:44:26;3.40;99.90
3715;DHT22;1873;49.988;8.674;2022-11-20T06:46:55;3.30;99.90
3715;DHT22;1873;49.988;8.674;2022-11-20T06:49:24;3.40;99.90
3715;DHT22;1873;49.988;8.674;2022-11-20T06:51:56;3.40;99.90
3715;DHT22;1873;49.988;8.674;2022-11-20T06:54:26;3.40;99.90
3715;DHT22;1873;49.988;8.674;2022-11-20T06:56:54;3.40;99.90
3715;DHT22;1873;49.988;8.674;2022-11-20T06:59:22;3.40;99.90
3715;DHT22;1873;49.988;8.674;2022-11-20T07:01:53;3.40;99.90
3715;DHT22;1873;49.988;8.674;2022-11-20T07:04:22;3.40;99.90
3715;DHT22;1873;49.988;8.674;2022-11-20T07:06:50;3.40;99.90
3715;DHT22;1873;49.988;8.674;2022-11-20T07:09:20;3.40;99.90
3715;DHT22;1873;49.988;8.674;2022-11-20T07:11:51;3.30;99.90
3715;DHT22;1873;49.988;8.674;2022-11-20T07:14:19;3.40;99.90
3715;DHT22;1873;49.988;8.674;2022-11-20T07:16:48;3.40;99.90
3715;DHT22;1873;49.988;8.674;2022-11-20T07:19:16;3.40;99.90
3715;DHT22;1873;49.988;8.674;2022-11-20T07:21:51;3.40;99.90
3715;DHT22;1873;49.988;8.674;2022-11-20T07:24:20;3.40;99.90
3715;DHT22;1873;49.988;8.674;2022-11-20T07:26:50;3.50;99.90
3715;DHT22;1873;49.988;8.674;2022-11-20T07:29:18;3.50;99.90
3715;DHT22;1873;49.988;8.674;2022-11-20T07:31:49;3.50;99.90
3715;DHT22;1873;49.988;8.674;2022-11-20T07:34:18;3.50;99.90
3715;DHT22;1873;49.988;8.674;2022-11-20T07:36:47;3.40;99.90
3715;DHT22;1873;49.988;8.674;2022-11-20T07:39:16;3.40;99.90
3715;DHT22;1873;49.988;8.674;2022-11-20T07:41:50;3.40;99.90
3715;DHT22;1873;49.988;8.674;2022-11-20T07:44:18;3.40;99.90
3715;DHT22;1873;49.988;8.674;2022-11-20T07:46:47;3.40;99.90
3715;DHT22;1873;49.988;8.674;2022-11-20T07:49:17;3.50;99.90
3715;DHT22;1873;49.988;8.674;2022-11-20T07:51:50;3.50;99.90
3715;DHT22;1873;49.988;8.674;2022-11-20T07:54:20;3.50;99.90
3715;DHT22;1873;49.988;8.674;2022-11-20T07:56:51;3.60;99.90
3715;DHT22;1873;49.988;8.674;2022-11-20T07:59:20;3.60;99.90
3715;DHT22;1873;49.988;8.674;2022-11-20T08:01:50;3.60;99.90
3715;DHT22;1873;49.988;8.674;2022-11-20T08:04:20;3.50;99.90
3715;DHT22;1873;49.988;8.674;2022-11-20T08:06:52;3.50;99.90
3715;DHT22;1873;49.988;8.674;2022-11-20T08:09:21;3.50;99.90
3715;DHT22;1873;49.988;8.674;2022-11-20T08:11:52;3.40;99.90
3715;DHT22;1873;49.988;8.674;2022-11-20T08:14:38;3.30;99.90
3715;DHT22;1873;49.988;8.674;2022-11-20T08:17:06;3.20;99.90
3715;DHT22;1873;49.988;8.674;2022-11-20T08:19:34;3.30;99.90
3715;DHT22;1873;49.988;8.674;2022-11-20T08:22:03;3.30;99.90
3715;DHT22;1873;49.988;8.674;2022-11-20T08:24:31;3.40;99.90
3715;DHT22;1873;49.988;8.674;2022-11-20T08:27:01;3.20;99.90
3715;DHT22;1873;49.988;8.674;2022-11-20T08:29:29;3.30;99.90
3715;DHT22;1873;49.988;8.674;2022-11-20T08:31:57;3.30;99.90
3715;DHT22;1873;49.988;8.674;2022-11-20T08:34:26;3.40;99.90
3715;DHT22;1873;49.988;8.674;2022-11-20T08:36:54;3.40;99.90
3715;DHT22;1873;49.988;8.674;2022-11-20T08:39:23;3.40;99.90
3715;DHT22;1873;49.988;8.674;2022-11-20T08:41:51;3.40;99.90
3715;DHT22;1873;49.988;8.674;2022-11-20T08:44:21;3.40;99.90
3715;DHT22;1873;49.988;8.674;2022-11-20T08:46:49;3.40;99.90
3715;DHT22;1873;49.988;8.674;2022-11-20T08:49:17;3.50;99.90
3715;DHT22;1873;49.988;8.674;2022-11-20T08:51:46;3.50;99.90
3715;DHT22;1873;49.988;8.674;2022-11-20T08:54:18;3.50;99.90
3715;DHT22;1873;49.988;8.674;2022-11-20T08:56:48;3.60;99.90
3715;DHT22;1873;49.988;8.674;2022-11-20T08:59:17;3.60;99.90
3715;DHT22;1873;49.988;8.674;2022-11-20T09:02:07;3.50;99.90
3715;DHT22;1873;49.988;8.674;2022-11-20T09:04:36;3.50;99.90
3715;DHT22;1873;49.988;8.674;2022-11-20T09:07:04;3.60;99.90
3715;DHT22;1873;49.988;8.674;2022-11-20T09:09:33;3.70;99.90
3715;DHT22;1873;49.988;8.674;2022-11-20T09:12:01;3.80;99.90
3715;DHT22;1873;49.988;8.674;2022-11-20T09:14:29;3.80;99.90
3715;DHT22;1873;49.988;8.674;2022-11-20T09:16:58;3.90;99.90
3715;DHT22;1873;49.988;8.674;2022-11-20T09:19:27;3.90;99.90
3715;DHT22;1873;49.988;8.674;2022-11-20T09:22:03;4.00;99.90
3715;DHT22;1873;49.988;8.674;2022-11-20T09:24:31;4.00;99.90
3715;DHT22;1873;49.988;8.674;2022-11-20T09:27:02;3.90;99.90
3715;DHT22;1873;49.988;8.674;2022-11-20T09:29:31;4.00;99.90
3715;DHT22;1873;49.988;8.674;2022-11-20T09:31:59;4.10;99.90
3715;DHT22;1873;49.988;8.674;2022-11-20T09:34:29;4.10;99.90
3715;DHT22;1873;49.988;8.674;2022-11-20T09:36:57;4.10;99.90
3715;DHT22;1873;49.988;8.674;2022-11-20T09:39:31;4.10;99.90
3715;DHT22;1873;49.988;8.674;2022-11-20T09:42:16;4.20;99.90
3715;DHT22;1873;49.988;8.674;2022-11-20T09:44:59;4.20;99.90
3715;DHT22;1873;49.988;8.674;2022-11-20T09:47:38;4.20;99.90
3715;DHT22;1873;49.988;8.674;2022-11-20T09:50:23;4.20;99.90
3715;DHT22;1873;49.988;8.674;2022-11-20T09:53:10;4.30;99.90
3715;DHT22;1873;49.988;8.674;2022-11-20T09:55:39;4.30;99.90
3715;DHT22;1873;49.988;8.674;2022-11-20T09:58:15;4.20;99.90
3715;DHT22;1873;49.988;8.674;2022-11-20T10:00:44;4.30;99.90
3715;DHT22;1873;49.988;8.674;2022-11-20T10:03:17;4.10;99.90
3715;DHT22;1873;49.988;8.674;2022-11-20T10:05:52;4.10;99.90
3715;DHT22;1873;49.988;8.674;2022-11-20T10:08:23;4.20;99.90
3715;DHT22;1873;49.988;8.674;2022-11-20T10:10:55;4.20;99.90
3715;DHT22;1873;49.988;8.674;2022-11-20T10:13:45;4.20;99.90
3715;DHT22;1873;49.988;8.674;2022-11-20T10:16:22;4.20;99.90
3715;DHT22;1873;49.988;8.674;2022-11-20T10:19:02;4.20;99.90
3715;DHT22;1873;49.988;8.674;2022-11-20T10:21:45;4.20;99.90
3715;DHT22;1873;49.988;8.674;2022-11-20T10:24:34;4.10;99.90
3715;DHT22;1873;49.988;8.674;2022-11-20T10:30:19;4.20;99.90
3715;DHT22;1873;49.988;8.674;2022-11-20T10:32:50;4.20;99.90
3715;DHT22;1873;49.988;8.674;2022-11-20T10:35:22;4.00;99.90
3715;DHT22;1873;49.988;8.674;2022-11-20T10:37:59;4.10;99.90
3715;DHT22;1873;49.988;8.674;2022-11-20T10:40:32;4.10;99.90
3715;DHT22;1873;49.988;8.674;2022-11-20T10:43:08;4.10;99.90
3715;DHT22;1873;49.988;8.674;2022-11-20T10:45:52;4.00;99.90
3715;DHT22;1873;49.988;8.674;2022-11-20T10:48:23;3.90;99.90
3715;DHT22;1873;49.988;8.674;2022-11-20T10:51:12;3.90;99.90
3715;DHT22;1873;49.988;8.674;2022-11-20T10:53:49;3.90;99.90
3715;DHT22;1873;49.988;8.674;2022-11-20T10:56:24;3.80;99.90
3715;DHT22;1873;49.988;8.674;2022-11-20T11:01:44;3.80;99.90
3715;DHT22;1873;49.988;8.674;2022-11-20T11:04:23;3.80;99.90
3715;DHT22;1873;49.988;8.674;2022-11-20T11:07:01;3.90;99.90
3715;DHT22;1873;49.988;8.674;2022-11-20T11:09:38;3.90;99.90
3715;DHT22;1873;49.988;8.674;2022-11-20T11:12:08;3.90;99.90
3715;DHT22;1873;49.988;8.674;2022-11-20T11:14:50;3.80;99.90
3715;DHT22;1873;49.988;8.674;2022-11-20T11:17:25;3.80;99.90
3715;DHT22;1873;49.988;8.674;2022-11-20T11:19:59;3.80;99.90
3715;DHT22;1873;49.988;8.674;2022-11-20T11:22:29;3.90;99.90
3715;DHT22;1873;49.988;8.674;2022-11-20T11:24:59;3.90;99.90
3715;DHT22;1873;49.988;8.674;2022-11-20T11:27:28;3.90;99.90
3715;DHT22;1873;49.988;8.674;2022-11-20T11:30:14;3.90;99.90
3715;DHT22;1873;49.988;8.674;2022-11-20T11:32:43;4.00;99.90
3715;DHT22;1873;49.988;8.674;2022-11-20T11:35:23;4.00;99.90
3715;DHT22;1873;49.988;8.674;2022-11-20T11:37:53;4.00;99.90
3715;DHT22;1873;49.988;8.674;2022-11-20T11:40:28;4.00;99.90
3715;DHT22;1873;49.988;8.674;2022-11-20T11:43:06;3.90;99.90
3715;DHT22;1873;49.988;8.674;2022-11-20T11:46:12;4.00;99.90
3715;DHT22;1873;49.988;8.674;2022-11-20T11:48:55;4.10;99.90
3715;DHT22;1873;49.988;8.674;2022-11-20T11:51:31;4.10;99.90
3715;DHT22;1873;49.988;8.674;2022-11-20T11:54:10;4.10;99.90
3715;DHT22;1873;49.988;8.674;2022-11-20T11:56:46;4.10;99.90
3715;DHT22;1873;49.988;8.674;2022-11-20T11:59:22;4.10;99.90
3715;DHT22;1873;49.988;8.674;2022-11-20T12:01:56;4.00;99.90
3715;DHT22;1873;49.988;8.674;2022-11-20T12:04:40;4.00;99.90
3715;DHT22;1873;49.988;8.674;2022-11-20T12:07:14;4.10;99.90
3715;DHT22;1873;49.988;8.674;2022-11-20T12:10:08;4.20;99.90
3715;DHT22;1873;49.988;8.674;2022-11-20T12:12:45;4.30;99.90
3715;DHT22;1873;49.988;8.674;2022-11-20T12:15:23;4.30;99.90
3715;DHT22;1873;49.988;8.674;2022-11-20T12:17:53;4.20;99.90
3715;DHT22;1873;49.988;8.674;2022-11-20T12:20:24;4.10;99.90
3715;DHT22;1873;49.988;8.674;2022-11-20T12:22:59;4.20;99.90
3715;DHT22;1873;49.988;8.674;2022-11-20T12:25:31;4.30;99.90
3715;DHT22;1873;49.988;8.674;2022-11-20T12:28:26;4.40;99.90
3715;DHT22;1873;49.988;8.674;2022-11-20T12:31:08;4.60;99.90
3715;DHT22;1873;49.988;8.674;2022-11-20T12:34:00;4.70;99.90
3715;DHT22;1873;49.988;8.674;2022-11-20T12:36:39;4.80;99.90
3715;DHT22;1873;49.988;8.674;2022-11-20T12:48:52;4.70;99.90
3715;DHT22;1873;49.988;8.674;2022-11-20T12:51:39;4.70;99.90
3715;DHT22;1873;49.988;8.674;2022-11-20T12:57:18;4.70;99.90
3715;DHT22;1873;49.988;8.674;2022-11-20T13:00:01;4.70;99.90
3715;DHT22;1873;49.988;8.674;2022-11-20T13:02:36;4.60;99.90
3715;DHT22;1873;49.988;8.674;2022-11-20T13:05:20;4.60;99.90
3715;DHT22;1873;49.988;8.674;2022-11-20T13:07:53;4.60;99.90
3715;DHT22;1873;49.988;8.674;2022-11-20T13:10:33;4.60;99.90
3715;DHT22;1873;49.988;8.674;2022-11-20T13:13:33;4.60;99.90
3715;DHT22;1873;49.988;8.674;2022-11-20T13:16:08;4.60;99.90
3715;DHT22;1873;49.988;8.674;2022-11-20T13:18:41;4.70;99.90
3715;DHT22;1873;49.988;8.674;2022-11-20T13:21:18;4.70;99.90
3715;DHT22;1873;49.988;8.674;2022-11-20T13:23:49;4.60;99.90
3715;DHT22;1873;49.988;8.674;2022-11-20T13:26:32;4.70;99.90
3715;DHT22;1873;49.988;8.674;2022-11-20T13:29:07;4.70;99.90
3715;DHT22;1873;49.988;8.674;2022-11-20T13:31:42;4.70;99.90
3715;DHT22;1873;49.988;8.674;2022-11-20T13:34:23;4.70;99.90
3715;DHT22;1873;49.988;8.674;2022-11-20T13:36:56;4.70;99.90
3715;DHT22;1873;49.988;8.674;2022-11-20T13:39:25;4.70;99.90
3715;DHT22;1873;49.988;8.674;2022-11-20T13:41:56;4.70;99.90
3715;DHT22;1873;49.988;8.674;2022-11-20T13:44:30;4.70;99.90
3715;DHT22;1873;49.988;8.674;2022-11-20T13:47:16;4.70;99.90
3715;DHT22;1873;49.988;8.674;2022-11-20T13:49:48;4.80;99.90
3715;DHT22;1873;49.988;8.674;2022-11-20T13:52:40;4.80;99.90
3715;DHT22;1873;49.988;8.674;2022-11-20T13:55:21;4.80;99.90
3715;DHT22;1873;49.988;8.674;2022-11-20T13:58:05;4.70;99.90
3715;DHT22;1873;49.988;8.674;2022-11-20T14:00:48;4.70;99.90
3715;DHT22;1873;49.988;8.674;2022-11-20T14:03:20;4.80;99.90
3715;DHT22;1873;49.988;8.674;2022-11-20T14:06:14;4.80;99.90
3715;DHT22;1873;49.988;8.674;2022-11-20T14:12:02;4.90;99.90
3715;DHT22;1873;49.988;8.674;2022-11-20T14:14:56;4.90;99.90
3715;DHT22;1873;49.988;8.674;2022-11-20T14:17:47;4.90;99.90
3715;DHT22;1873;49.988;8.674;2022-11-20T14:20:38;4.90;99.90
3715;DHT22;1873;49.988;8.674;2022-11-20T14:23:27;4.90;99.90
3715;DHT22;1873;49.988;8.674;2022-11-20T14:26:25;4.90;99.90
3715;DHT22;1873;49.988;8.674;2022-11-20T14:28:55;4.90;99.90
3715;DHT22;1873;49.988;8.674;2022-11-20T14:31:25;5.00;99.90
3715;DHT22;1873;49.988;8.674;2022-11-20T14:33:55;4.90;99.90
3715;DHT22;1873;49.988;8.674;2022-11-20T14:36:27;5.00;99.90
3715;DHT22;1873;49.988;8.674;2022-11-20T14:38:56;4.90;99.90
3715;DHT22;1873;49.988;8.674;2022-11-20T14:41:26;4.90;99.90
3715;DHT22;1873;49.988;8.674;2022-11-20T14:44:03;4.90;99.90
3715;DHT22;1873;49.988;8.674;2022-11-20T14:46:48;4.90;99.90
3715;DHT22;1873;49.988;8.674;2022-11-20T14:49:20;4.90;99.90
3715;DHT22;1873;49.988;8.674;2022-11-20T14:51:59;5.00;99.90
3715;DHT22;1873;49.988;8.674;2022-11-20T14:54:29;5.00;99.90
3715;DHT22;1873;49.988;8.674;2022-11-20T14:57:34;5.00;99.90
3715;DHT22;1873;49.988;8.674;2022-11-20T15:06:26;4.90;99.90
3715;DHT22;1873;49.988;8.674;2022-11-20T15:08:57;5.00;99.90
3715;DHT22;1873;49.988;8.674;2022-11-20T15:11:29;5.00;99.90
3715;DHT22;1873;49.988;8.674;2022-11-20T15:14:02;5.00;99.90
3715;DHT22;1873;49.988;8.674;2022-11-20T15:16:43;5.00;99.90
3715;DHT22;1873;49.988;8.674;2022-11-20T15:19:26;5.00;99.90
3715;DHT22;1873;49.988;8.674;2022-11-20T15:21:55;5.00;99.90
3715;DHT22;1873;49.988;8.674;2022-11-20T15:24:26;5.00;99.90
3715;DHT22;1873;49.988;8.674;2022-11-20T15:26:59;5.00;99.90
3715;DHT22;1873;49.988;8.674;2022-11-20T15:29:27;5.00;99.90
3715;DHT22;1873;49.988;8.674;2022-11-20T15:31:56;5.00;99.90
3715;DHT22;1873;49.988;8.674;2022-11-20T15:34:27;5.00;99.90
3715;DHT22;1873;49.988;8.674;2022-11-20T15:36:56;5.00;99.90
3715;DHT22;1873;49.988;8.674;2022-11-20T15:39:25;4.90;99.90
3715;DHT22;1873;49.988;8.674;2022-11-20T15:41:53;4.90;99.90
3715;DHT22;1873;49.988;8.674;2022-11-20T15:44:22;4.90;99.90
3715;DHT22;1873;49.988;8.674;2022-11-20T15:46:51;4.90;99.90
3715;DHT22;1873;49.988;8.674;2022-11-20T15:49:23;5.00;99.90
3715;DHT22;1873;49.988;8.674;2022-11-20T15:51:53;5.00;99.90
3715;DHT22;1873;49.988;8.674;2022-11-20T15:54:22;5.00;99.90
3715;DHT22;1873;49.988;8.674;2022-11-20T15:56:52;5.00;99.90
3715;DHT22;1873;49.988;8.674;2022-11-20T15:59:20;5.00;99.90
3715;DHT22;1873;49.988;8.674;2022-11-20T16:01:52;5.00;99.90
3715;DHT22;1873;49.988;8.674;2022-11-20T16:04:21;5.00;99.90
3715;DHT22;1873;49.988;8.674;2022-11-20T16:06:53;5.00;99.90
3715;DHT22;1873;49.988;8.674;2022-11-20T16:09:24;5.00;99.90
3715;DHT22;1873;49.988;8.674;2022-11-20T16:11:54;5.00;99.90
3715;DHT22;1873;49.988;8.674;2022-11-20T16:14:23;5.00;99.90
3715;DHT22;1873;49.988;8.674;2022-11-20T16:17:09;5.00;99.90
3715;DHT22;1873;49.988;8.674;2022-11-20T16:19:38;5.10;99.90
3715;DHT22;1873;49.988;8.674;2022-11-20T16:22:30;5.00;99.90
3715;DHT22;1873;49.988;8.674;2022-11-20T16:24:59;5.00;99.90
3715;DHT22;1873;49.988;8.674;2022-11-20T16:27:27;5.00;99.90
3715;DHT22;1873;49.988;8.674;2022-11-20T16:29:55;5.00;99.90
3715;DHT22;1873;49.988;8.674;2022-11-20T16:32:28;5.00;99.90
3715;DHT22;1873;49.988;8.674;2022-11-20T16:34:57;5.00;99.90
3715;DHT22;1873;49.988;8.674;2022-11-20T16:37:25;5.00;99.90
3715;DHT22;1873;49.988;8.674;2022-11-20T16:39:56;5.00;99.90
3715;DHT22;1873;49.988;8.674;2022-11-20T16:42:24;5.00;99.90
3715;DHT22;1873;49.988;8.674;2022-11-20T16:44:53;5.00;99.90
3715;DHT22;1873;49.988;8.674;2022-11-20T16:47:23;5.10;99.90
3715;DHT22;1873;49.988;8.674;2022-11-20T16:49:53;5.10;99.90
3715;DHT22;1873;49.988;8.674;2022-11-20T16:52:21;5.10;99.90
3715;DHT22;1873;49.988;8.674;2022-11-20T16:54:50;5.10;99.90
3715;DHT22;1873;49.988;8.674;2022-11-20T16:57:20;5.10;99.90
3715;DHT22;1873;49.988;8.674;2022-11-20T16:59:49;5.10;99.90
3715;DHT22;1873;49.988;8.674;2022-11-20T17:02:19;5.20;99.90
3715;DHT22;1873;49.988;8.674;2022-11-20T17:04:47;5.20;99.90
3715;DHT22;1873;49.988;8.674;2022-11-20T17:07:16;5.10;99.90
3715;DHT22;1873;49.988;8.674;2022-11-20T17:09:45;5.10;99.90
3715;DHT22;1873;49.988;8.674;2022-11-20T17:12:13;5.10;99.90
3715;DHT22;1873;49.988;8.674;2022-11-20T17:14:44;5.10;99.90
3715;DHT22;1873;49.988;8.674;2022-11-20T17:17:12;5.10;99.90
3715;DHT22;1873;49.988;8.674;2022-11-20T17:19:40;5.10;99.90